Time;durP1;ratioP1;P1;durP2;ratioP2;P2;SDS_P1;SDS_P2;PMS_P1;PMS_P2;Temp;Humidity;BMP_temperature;BMP_pressure;BME280_temperature;BME280_humidity;BME280_pressure;Samples;Min_cycle;Max_cycle;Signal;HPM_P1;HPM_P2
2022/08/01 00:00:44;;;;;;;0.68;0.40;;;;;;;22.27;71.93;101396.38;7383438;19;20014;-62
2022/08/01 00:03:11;;;;;;;1.10;0.50;;;;;;;22.29;71.87;101391.63;7383029;19;20014;-67
2022/08/01 00:05:38;;;;;;;1.60;0.50;;;;;;;22.29;71.33;101388.94;7381877;19;20050;-65
2022/08/01 00:08:06;;;;;;;1.80;0.55;;;;;;;22.28;71.67;101391.84;7383778;19;20479;-67
2022/08/01 00:10:33;;;;;;;1.77;0.47;;;;;;;22.28;71.55;101386.47;7383367;19;20081;-66
2022/08/01 00:13:02;;;;;;;1.17;0.50;;;;;;;22.27;71.68;101391.03;7382847;19;20086;-67
2022/08/01 00:15:29;;;;;;;2.38;0.93;;;;;;;22.26;71.88;101392.06;7384383;19;20033;-67
2022/08/01 00:17:56;;;;;;;1.05;0.50;;;;;;;22.25;71.49;101393.09;7384651;19;20044;-67
2022/08/01 00:20:23;;;;;;;0.60;0.32;;;;;;;22.24;71.70;101388.78;7379980;19;20074;-67
2022/08/01 00:22:50;;;;;;;1.10;0.40;;;;;;;22.21;70.83;101391.06;7384292;19;20017;-67
2022/08/01 00:25:18;;;;;;;1.35;0.60;;;;;;;22.21;70.98;101391.88;7383847;19;20018;-62
2022/08/01 00:27:45;;;;;;;1.17;0.40;;;;;;;22.21;71.31;101383.84;7384163;19;20016;-62
2022/08/01 00:30:13;;;;;;;1.08;0.40;;;;;;;22.22;71.39;101382.78;7385653;19;20363;-62
2022/08/01 00:32:44;;;;;;;1.13;0.60;;;;;;;22.22;71.48;101379.28;7382573;19;20513;-63
2022/08/01 00:35:11;;;;;;;0.90;0.40;;;;;;;22.22;71.57;101385.47;7381394;19;20017;-63
2022/08/01 00:37:39;;;;;;;1.83;0.50;;;;;;;22.22;70.90;101385.47;7383293;19;20018;-62
2022/08/01 00:40:07;;;;;;;1.55;0.88;;;;;;;22.19;70.86;101391.28;7382664;19;20018;-61
2022/08/01 00:42:34;;;;;;;1.23;0.50;;;;;;;22.16;70.58;101389.84;7383579;19;20018;-62
2022/08/01 00:45:09;;;;;;;0.93;0.50;;;;;;;22.16;70.64;101386.34;7383136;19;20019;-62
2022/08/01 00:47:36;;;;;;;0.93;0.40;;;;;;;22.14;69.98;101391.09;7384273;19;20011;-62
2022/08/01 00:50:04;;;;;;;1.42;0.45;;;;;;;22.16;70.25;101389.84;7380553;19;20542;-62
2022/08/01 00:52:32;;;;;;;1.35;0.40;;;;;;;22.17;69.66;101386.13;7381464;19;20010;-62
2022/08/01 00:55:00;;;;;;;1.10;0.50;;;;;;;22.19;69.26;101385.91;7382096;19;20487;-62
2022/08/01 00:57:28;;;;;;;1.00;0.50;;;;;;;22.18;68.92;101384.28;7382426;19;20314;-62
2022/08/01 01:00:15;;;;;;;1.70;0.47;;;;;;;22.18;69.21;101385.09;7382659;19;20078;-61
2022/08/01 01:02:43;;;;;;;0.95;0.40;;;;;;;22.19;69.08;101380.56;7381024;19;20142;-61
2022/08/01 01:05:10;;;;;;;1.25;0.40;;;;;;;22.18;68.89;101386.94;7379056;19;20022;-61
2022/08/01 01:07:49;;;;;;;1.33;0.50;;;;;;;22.18;68.06;101387.78;7382267;19;20479;-61
2022/08/01 01:10:25;;;;;;;1.08;0.40;;;;;;;22.17;67.61;101398.72;7383045;19;20095;-61
2022/08/01 01:13:00;;;;;;;0.80;0.40;;;;;;;22.18;67.79;101403.03;7377595;19;20010;-61
2022/08/01 01:15:57;;;;;;;0.98;0.40;;;;;;;22.19;67.46;101404.69;7383710;19;20120;-62
2022/08/01 01:19:03;;;;;;;1.23;0.50;;;;;;;22.17;68.12;101401.38;7380594;19;20024;-63
2022/08/01 01:22:17;;;;;;;2.03;0.40;;;;;;;22.15;69.48;101408.81;7378338;19;20577;-61
2022/08/01 01:25:28;;;;;;;1.55;0.60;;;;;;;22.11;70.11;101407.59;7379912;19;20014;-62
2022/08/01 01:28:25;;;;;;;0.57;0.35;;;;;;;22.09;70.21;101407.84;7378359;19;20007;-60
2022/08/01 01:30:57;;;;;;;1.80;0.50;;;;;;;22.07;70.72;101409.91;7381335;19;20007;-62
2022/08/01 01:33:31;;;;;;;1.80;0.50;;;;;;;22.04;70.82;101406.84;7388703;19;20029;-61
2022/08/01 01:36:03;;;;;;;0.90;0.40;;;;;;;21.98;71.00;101396.97;7384857;19;20345;-61
2022/08/01 01:38:41;;;;;;;2.35;0.40;;;;;;;21.90;71.56;101403.34;7384984;19;20066;-60
2022/08/01 01:41:12;;;;;;;0.82;0.50;;;;;;;21.85;72.33;101413.06;7385181;19;20531;-61
2022/08/01 01:43:41;;;;;;;1.45;0.50;;;;;;;21.80;72.02;101400.28;7384852;19;20010;-61
2022/08/01 01:46:12;;;;;;;1.10;0.50;;;;;;;21.77;72.77;101398.88;7389018;19;20014;-61
2022/08/01 01:48:43;;;;;;;1.08;0.50;;;;;;;21.73;72.34;101400.34;7383812;19;20014;-62
2022/08/01 01:51:13;;;;;;;0.80;0.40;;;;;;;21.70;72.52;101406.09;7385559;19;20150;-66
2022/08/01 01:53:42;;;;;;;1.42;0.50;;;;;;;21.68;72.33;101400.16;7387650;19;20011;-66
2022/08/01 01:56:11;;;;;;;1.23;0.40;;;;;;;21.67;72.63;101395.81;7389091;19;20014;-68
2022/08/01 01:58:39;;;;;;;2.13;0.60;;;;;;;21.68;72.75;101399.31;7386873;19;20010;-62
2022/08/01 02:01:07;;;;;;;1.00;0.50;;;;;;;21.67;72.75;101398.50;7386620;19;20045;-62
2022/08/01 02:03:43;;;;;;;1.10;0.50;;;;;;;21.66;72.53;101396.84;7386552;19;20286;-63
2022/08/01 02:06:14;;;;;;;2.00;0.40;;;;;;;21.63;72.46;101402.66;7386510;19;20015;-65
2022/08/01 02:08:42;;;;;;;3.28;0.40;;;;;;;21.60;72.27;101404.91;7388536;19;20610;-62
2022/08/01 02:11:19;;;;;;;0.90;0.43;;;;;;;21.55;72.96;101392.13;7387590;19;20285;-63
2022/08/01 02:14:02;;;;;;;0.77;0.40;;;;;;;21.53;72.86;101394.22;7389347;19;20602;-62
2022/08/01 02:16:34;;;;;;;1.63;0.38;;;;;;;21.52;72.72;101397.09;7387061;19;20017;-62
2022/08/01 02:19:03;;;;;;;1.48;0.40;;;;;;;21.52;73.11;101394.44;7386949;19;20506;-62
2022/08/01 02:21:52;;;;;;;1.45;0.73;;;;;;;21.52;72.83;101395.25;7386055;19;20050;-62
2022/08/01 02:24:29;;;;;;;1.10;0.40;;;;;;;21.51;73.00;101388.25;7386877;19;20010;-62
2022/08/01 02:27:01;;;;;;;1.98;0.50;;;;;;;21.50;73.21;101394.63;7388977;19;20014;-63
2022/08/01 02:29:38;;;;;;;1.65;0.40;;;;;;;21.49;73.11;101389.47;7388507;19;20408;-62
2022/08/01 02:32:07;;;;;;;1.35;0.50;;;;;;;21.50;73.27;101393.81;7386389;19;20010;-63
2022/08/01 02:34:35;;;;;;;1.92;0.60;;;;;;;21.50;73.80;101386.59;7385837;19;20048;-62
2022/08/01 02:37:04;;;;;;;1.30;0.60;;;;;;;21.47;73.25;101384.34;7385283;19;20018;-61
2022/08/01 02:39:32;;;;;;;0.90;0.40;;;;;;;21.49;73.26;101381.44;7386475;19;20110;-63
2022/08/01 02:42:03;;;;;;;0.88;0.40;;;;;;;21.44;73.81;101378.56;7386859;19;20019;-62
2022/08/01 02:44:35;;;;;;;2.60;0.50;;;;;;;21.42;73.44;101383.34;7386706;19;20439;-61
2022/08/01 02:47:03;;;;;;;2.75;0.50;;;;;;;21.39;73.91;101375.69;7383803;19;20280;-65
2022/08/01 02:49:37;;;;;;;2.28;0.40;;;;;;;21.34;74.18;101371.81;7384912;19;20367;-62
2022/08/01 02:52:11;;;;;;;2.08;0.80;;;;;;;21.31;74.43;101368.72;7386328;19;20997;-62
2022/08/01 02:54:41;;;;;;;1.20;0.52;;;;;;;21.29;74.00;101360.06;7385399;19;20011;-62
2022/08/01 02:57:09;;;;;;;2.13;0.50;;;;;;;21.30;73.51;101362.56;7386749;19;20023;-63
2022/08/01 02:59:41;;;;;;;1.35;0.45;;;;;;;21.30;73.60;101359.88;7386709;19;20064;-62
2022/08/01 03:02:11;;;;;;;1.48;0.40;;;;;;;21.30;73.49;101369.75;7387485;19;20021;-62
2022/08/01 03:04:41;;;;;;;0.60;0.30;;;;;;;21.30;73.72;101367.06;7382811;19;20018;-62
2022/08/01 03:07:10;;;;;;;1.33;0.40;;;;;;;21.30;73.75;101365.22;7385704;19;20123;-62
2022/08/01 03:09:43;;;;;;;1.95;0.50;;;;;;;21.31;73.79;101369.56;7384926;19;20439;-62
2022/08/01 03:12:18;;;;;;;;;;;;;;;21.33;74.05;101367.47;7386772;19;20014;-62
2022/08/01 03:14:47;;;;;;;1.50;0.50;;;;;;;21.30;73.65;101365.22;7384666;19;19915;-62
2022/08/01 03:17:18;;;;;;;1.13;0.40;;;;;;;21.28;73.38;101369.16;7385844;19;20085;-67
2022/08/01 03:19:46;;;;;;;1.02;0.30;;;;;;;21.27;73.68;101364.84;7382744;19;20034;-66
2022/08/01 03:22:16;;;;;;;2.90;0.70;;;;;;;21.25;73.40;101362.34;7385195;19;20510;-66
2022/08/01 03:24:48;;;;;;;3.25;0.73;;;;;;;21.24;73.44;101358.03;7383653;19;20074;-67
2022/08/01 03:27:19;;;;;;;1.90;0.50;;;;;;;21.20;73.48;101364.84;7378231;19;20093;-66
2022/08/01 03:29:48;;;;;;;1.23;0.50;;;;;;;21.18;73.91;101372.25;7386038;19;20014;-67
2022/08/01 03:32:17;;;;;;;1.77;0.47;;;;;;;21.17;74.51;101377.84;7385751;19;20011;-62
2022/08/01 03:34:45;;;;;;;1.52;0.40;;;;;;;21.14;74.23;101378.22;7383144;19;20037;-63
2022/08/01 03:37:24;;;;;;;1.35;0.40;;;;;;;21.11;74.03;101378.63;7381865;19;20475;-62
2022/08/01 03:40:10;;;;;;;2.60;0.60;;;;;;;21.10;74.33;101377.81;7385008;19;20100;-63
2022/08/01 03:42:46;;;;;;;0.68;0.30;;;;;;;21.07;74.40;101380.91;7385486;19;20122;-62
2022/08/01 03:45:30;;;;;;;1.60;0.55;;;;;;;21.02;74.20;101379.88;7383815;19;20499;-62
2022/08/01 03:48:03;;;;;;;3.03;0.50;;;;;;;20.98;74.76;101384.00;7384083;19;20014;-62
2022/08/01 03:50:34;;;;;;;1.60;0.40;;;;;;;20.95;74.86;101379.88;7381705;19;20077;-62
2022/08/01 03:53:02;;;;;;;1.75;0.40;;;;;;;20.93;74.99;101389.94;7382913;19;20007;-62
2022/08/01 03:55:31;;;;;;;2.15;0.50;;;;;;;20.91;75.00;101375.97;7384821;19;20018;-61
2022/08/01 03:58:00;;;;;;;1.95;0.50;;;;;;;20.90;75.04;101383.19;7384750;19;20025;-62
2022/08/01 04:00:28;;;;;;;0.70;0.40;;;;;;;20.92;75.13;101375.78;7383164;19;20082;-61
2022/08/01 04:02:59;;;;;;;2.08;0.40;;;;;;;20.91;74.40;101387.50;7382787;19;20020;-61
2022/08/01 04:05:26;;;;;;;2.17;0.50;;;;;;;20.92;74.85;101377.63;7382353;19;20022;-63
2022/08/01 04:07:57;;;;;;;1.85;0.40;;;;;;;20.93;74.87;101388.09;7383823;19;20086;-62
2022/08/01 04:10:25;;;;;;;1.45;0.40;;;;;;;20.94;74.50;101380.91;7384766;19;20020;-63
2022/08/01 04:12:52;;;;;;;1.77;0.52;;;;;;;20.93;74.88;101379.25;7383283;19;20046;-63
2022/08/01 04:15:20;;;;;;;1.25;0.43;;;;;;;20.91;74.94;101376.81;7384884;19;20044;-62
2022/08/01 04:17:47;;;;;;;2.00;0.40;;;;;;;20.91;74.75;101371.44;7384812;19;20026;-61
2022/08/01 04:20:15;;;;;;;1.35;0.50;;;;;;;20.90;74.59;101367.13;7382195;19;20074;-61
2022/08/01 04:22:50;;;;;;;3.83;0.50;;;;;;;20.89;75.23;101368.16;7382356;19;20034;-61
2022/08/01 04:25:39;;;;;;;1.55;0.60;;;;;;;20.82;75.34;101380.72;7383296;19;20118;-60
2022/08/01 04:28:10;;;;;;;1.23;0.50;;;;;;;20.75;75.79;101374.53;7384025;19;20034;-62
2022/08/01 04:30:46;;;;;;;0.90;0.30;;;;;;;20.66;76.10;101373.09;7383561;19;20029;-61
2022/08/01 04:33:17;;;;;;;2.50;0.47;;;;;;;20.62;76.24;101382.53;7383134;19;20042;-62
2022/08/01 04:35:46;;;;;;;1.48;0.50;;;;;;;20.59;76.30;101376.78;7379624;19;20006;-61
2022/08/01 04:38:33;;;;;;;2.13;0.40;;;;;;;20.60;76.99;101373.09;7382451;19;20022;-61
2022/08/01 04:41:02;;;;;;;1.63;0.50;;;;;;;20.57;76.57;101370.84;7381653;19;20011;-61
2022/08/01 04:43:34;;;;;;;1.45;0.50;;;;;;;20.59;76.64;101376.78;7382408;19;20014;-61
2022/08/01 04:46:03;;;;;;;2.30;0.60;;;;;;;20.60;76.83;101379.25;7383896;19;20011;-61
2022/08/01 04:48:33;;;;;;;1.00;0.45;;;;;;;20.64;76.61;101382.34;7380727;19;20396;-61
2022/08/01 04:51:01;;;;;;;1.48;0.50;;;;;;;20.66;76.08;101385.66;7383087;19;20026;-62
2022/08/01 04:53:28;;;;;;;1.75;0.50;;;;;;;20.66;75.95;101393.69;7382002;19;20018;-61
2022/08/01 04:55:55;;;;;;;1.30;0.50;;;;;;;20.65;76.47;101394.69;7382477;19;20018;-61
2022/08/01 04:58:22;;;;;;;2.70;0.50;;;;;;;20.65;76.10;101397.38;7382725;19;20018;-60
2022/08/01 05:00:50;;;;;;;2.10;0.45;;;;;;;20.68;76.64;101394.28;7380059;19;20015;-60
2022/08/01 05:03:17;;;;;;;1.52;0.50;;;;;;;20.68;76.20;101396.94;7382979;19;20011;-60
2022/08/01 05:05:44;;;;;;;2.45;0.57;;;;;;;20.70;76.01;101403.75;7380069;19;20696;-61
2022/08/01 05:08:11;;;;;;;2.55;0.40;;;;;;;20.71;76.28;101401.91;7389510;19;20457;-62
2022/08/01 05:10:41;;;;;;;2.00;0.55;;;;;;;20.70;75.69;101413.63;7390526;19;20699;-62
2022/08/01 05:13:08;;;;;;;1.90;0.50;;;;;;;20.69;76.03;101407.44;7387393;19;20006;-62
2022/08/01 05:15:38;;;;;;;2.53;1.27;;;;;;;20.68;76.44;101410.31;7390842;19;20074;-62
2022/08/01 05:18:05;;;;;;;1.55;0.50;;;;;;;20.65;75.95;101410.75;7389034;19;20027;-62
2022/08/01 05:20:34;;;;;;;1.58;0.80;;;;;;;20.65;76.79;101416.09;7385126;19;20029;-61
2022/08/01 05:23:01;;;;;;;0.95;0.52;;;;;;;20.64;76.39;101420.63;7389601;19;20007;-62
2022/08/01 05:25:29;;;;;;;1.73;0.50;;;;;;;20.63;76.51;101420.81;7388371;19;20074;-62
2022/08/01 05:28:16;;;;;;;2.53;0.70;;;;;;;20.60;76.37;101416.72;7389453;19;20364;-63
2022/08/01 05:30:45;;;;;;;2.35;0.50;;;;;;;20.56;76.90;101418.16;7388756;19;20390;-61
2022/08/01 05:33:12;;;;;;;2.65;0.68;;;;;;;20.47;77.17;101419.34;7386937;19;20010;-62
2022/08/01 05:35:39;;;;;;;2.83;0.70;;;;;;;20.46;77.20;101407.03;7385985;19;20010;-61
2022/08/01 05:38:14;;;;;;;2.05;0.60;;;;;;;20.49;77.73;101415.47;7390637;19;20366;-61
2022/08/01 05:40:41;;;;;;;2.75;0.50;;;;;;;20.51;77.13;101411.75;7388241;19;20542;-61
2022/08/01 05:43:08;;;;;;;2.67;0.60;;;;;;;20.52;76.95;101410.75;7389763;19;20042;-61
2022/08/01 05:45:35;;;;;;;3.88;0.77;;;;;;;20.54;77.13;101404.16;7390593;19;20385;-61
2022/08/01 05:48:03;;;;;;;3.05;0.50;;;;;;;20.57;77.21;101409.06;7386777;19;20026;-62
2022/08/01 05:50:30;;;;;;;1.70;0.55;;;;;;;20.59;77.26;101409.72;7384689;19;20018;-62
2022/08/01 05:52:57;;;;;;;1.70;0.65;;;;;;;20.64;76.97;101409.91;7385855;19;20014;-62
2022/08/01 05:55:24;;;;;;;2.15;0.52;;;;;;;20.66;76.86;101415.06;7385672;19;20029;-62
2022/08/01 05:57:51;;;;;;;1.92;0.70;;;;;;;20.67;76.62;101419.41;7388914;19;20015;-62
2022/08/01 06:00:18;;;;;;;2.08;0.50;;;;;;;20.63;76.96;101418.13;7388802;19;20045;-62
2022/08/01 06:02:44;;;;;;;2.53;0.50;;;;;;;20.62;76.98;101419.97;7388314;19;20021;-62
2022/08/01 06:05:11;;;;;;;1.23;0.50;;;;;;;20.64;76.96;101423.28;7385534;19;20042;-61
2022/08/01 06:07:39;;;;;;;2.53;0.80;;;;;;;20.59;77.05;101428.44;7387437;19;20347;-61
2022/08/01 06:10:07;;;;;;;2.88;0.77;;;;;;;20.61;77.44;101425.56;7388059;19;20523;-60
2022/08/01 06:12:35;;;;;;;1.60;1.42;;;;;;;20.64;77.82;101425.13;7386202;19;20014;-61
2022/08/01 06:15:04;;;;;;;2.08;0.80;;;;;;;20.65;77.07;101413.41;7388416;19;20010;-61
2022/08/01 06:17:31;;;;;;;1.80;0.68;;;;;;;20.65;77.06;101419.59;7384998;19;20018;-63
2022/08/01 06:19:59;;;;;;;1.77;0.95;;;;;;;20.66;76.69;101417.75;7384542;19;20033;-60
2022/08/01 06:22:26;;;;;;;1.98;0.65;;;;;;;20.62;77.23;101421.88;7387920;19;20054;-62
2022/08/01 06:24:53;;;;;;;2.28;0.60;;;;;;;20.62;77.60;101416.50;7386914;19;20062;-63
2022/08/01 06:27:20;;;;;;;1.83;1.10;;;;;;;20.62;77.02;101408.50;7388466;19;20098;-61
2022/08/01 06:29:48;;;;;;;3.67;0.85;;;;;;;20.65;77.44;101419.59;7387910;19;20021;-62
2022/08/01 06:32:22;;;;;;;2.35;0.60;;;;;;;20.68;77.58;101419.19;7384855;19;20042;-60
2022/08/01 06:34:54;;;;;;;3.03;0.70;;;;;;;20.73;77.36;101421.22;7385433;19;20046;-63
2022/08/01 06:37:22;;;;;;;5.05;0.95;;;;;;;20.77;77.19;101433.19;7387540;19;20302;-62
2022/08/01 06:39:49;;;;;;;2.60;0.90;;;;;;;20.81;76.96;101424.56;7385502;19;20095;-61
2022/08/01 06:42:17;;;;;;;3.50;0.98;;;;;;;20.85;76.92;101425.78;7385983;19;20275;-62
2022/08/01 06:44:44;;;;;;;2.97;0.98;;;;;;;20.86;76.89;101427.44;7386309;19;20506;-61
2022/08/01 06:47:11;;;;;;;3.17;0.80;;;;;;;20.89;76.78;101423.50;7385833;19;20070;-62
2022/08/01 06:49:38;;;;;;;3.38;0.95;;;;;;;20.89;76.48;101431.53;7382281;19;20017;-61
2022/08/01 06:52:05;;;;;;;2.10;1.10;;;;;;;20.89;76.86;101432.38;7387010;19;20546;-61
2022/08/01 06:54:33;;;;;;;4.90;0.80;;;;;;;20.86;76.44;101434.63;7385732;19;20015;-61
2022/08/01 06:57:06;;;;;;;6.47;1.05;;;;;;;20.83;76.81;101432.34;7385769;19;20010;-61
2022/08/01 06:59:33;;;;;;;3.88;0.80;;;;;;;20.79;76.64;101437.31;7382367;19;20010;-62
2022/08/01 07:02:01;;;;;;;2.35;0.90;;;;;;;20.76;77.39;101435.03;7383243;19;20541;-62
2022/08/01 07:04:28;;;;;;;2.00;1.00;;;;;;;20.74;77.14;101437.09;7383208;19;20027;-62
2022/08/01 07:06:55;;;;;;;2.90;1.10;;;;;;;20.68;77.61;101437.91;7385510;19;20038;-61
2022/08/01 07:09:22;;;;;;;1.42;0.85;;;;;;;20.68;77.91;101431.72;7385004;19;20018;-60
2022/08/01 07:11:50;;;;;;;3.38;0.70;;;;;;;20.67;77.64;101432.78;7385813;19;20510;-62
2022/08/01 07:14:17;;;;;;;2.63;1.13;;;;;;;20.68;77.44;101429.03;7383015;19;20006;-61
2022/08/01 07:16:44;;;;;;;2.13;0.70;;;;;;;20.72;77.65;101433.00;7384307;19;20020;-61
2022/08/01 07:19:12;;;;;;;5.15;0.77;;;;;;;20.73;77.75;101435.44;7380490;19;20014;-62
2022/08/01 07:21:39;;;;;;;4.40;0.98;;;;;;;20.75;77.36;101441.41;7384994;19;20443;-61
2022/08/01 07:24:09;;;;;;;4.10;1.27;;;;;;;20.80;76.69;101443.47;7384780;19;20100;-63
2022/08/01 07:26:44;;;;;;;3.25;1.00;;;;;;;20.81;77.42;101445.13;7384774;19;20025;-62
2022/08/01 07:29:21;;;;;;;4.30;1.05;;;;;;;20.78;77.50;101449.03;7382896;19;20558;-63
2022/08/01 07:31:48;;;;;;;3.10;1.10;;;;;;;20.80;77.28;101446.16;7384008;19;20093;-61
2022/08/01 07:34:15;;;;;;;2.53;1.27;;;;;;;20.79;77.03;101450.69;7380122;19;20006;-61
2022/08/01 07:36:42;;;;;;;3.58;0.90;;;;;;;20.80;77.50;101444.31;7384721;19;20025;-61
2022/08/01 07:39:09;;;;;;;5.85;1.25;;;;;;;20.79;77.57;101445.31;7382406;19;20021;-63
2022/08/01 07:41:36;;;;;;;5.38;1.30;;;;;;;20.80;77.00;101457.69;7382933;19;20015;-61
2022/08/01 07:44:22;;;;;;;2.17;1.05;;;;;;;20.81;77.48;101451.31;7384898;19;20041;-62
2022/08/01 07:46:53;;;;;;;3.33;1.00;;;;;;;20.79;77.14;101453.34;7385432;19;20010;-63
2022/08/01 07:49:21;;;;;;;3.10;1.25;;;;;;;20.76;77.26;101455.63;7382996;19;20031;-61
2022/08/01 07:51:48;;;;;;;3.10;1.15;;;;;;;20.73;77.41;101456.00;7383974;19;20041;-63
2022/08/01 07:54:32;;;;;;;6.32;2.72;;;;;;;20.79;78.82;101449.84;7381188;19;20014;-62
2022/08/01 07:57:07;;;;;;;4.68;1.20;;;;;;;20.84;78.69;101452.72;7384617;19;20530;-62
2022/08/01 07:59:34;;;;;;;3.28;1.20;;;;;;;20.88;77.45;101452.13;7383935;19;20037;-66
2022/08/01 08:02:01;;;;;;;9.57;0.98;;;;;;;20.93;77.46;101459.53;7383532;19;20020;-66
2022/08/01 08:04:28;;;;;;;7.50;1.77;;;;;;;20.98;76.96;101462.41;7379166;19;20014;-66
2022/08/01 08:06:54;;;;;;;5.60;1.35;;;;;;;21.04;76.78;101458.09;7384160;19;20373;-65
2022/08/01 08:09:22;;;;;;;4.00;1.48;;;;;;;21.10;76.71;101462.63;7381646;19;20090;-67
2022/08/01 08:11:49;;;;;;;4.13;1.17;;;;;;;21.16;76.07;101456.50;7384481;19;20494;-65
2022/08/01 08:14:16;;;;;;;4.63;1.30;;;;;;;21.22;75.77;101471.72;7380321;19;20483;-66
2022/08/01 08:16:44;;;;;;;5.80;1.40;;;;;;;21.29;75.83;101467.19;7384625;19;20018;-63
2022/08/01 08:19:11;;;;;;;3.50;1.10;;;;;;;21.36;76.35;101465.31;7380428;19;20090;-65
2022/08/01 08:21:38;;;;;;;8.63;1.80;;;;;;;21.41;76.29;101465.53;7384100;19;20082;-66
2022/08/01 08:24:19;;;;;;;7.22;1.58;;;;;;;21.44;75.38;101461.59;7382841;19;20494;-66
2022/08/01 08:27:00;;;;;;;3.97;1.58;;;;;;;21.48;75.32;101465.53;7381376;19;20018;-65
2022/08/01 08:29:33;;;;;;;16.35;2.45;;;;;;;21.49;75.17;101467.16;7383052;19;20038;-65
2022/08/01 08:32:01;;;;;;;7.78;1.88;;;;;;;21.50;75.11;101468.78;7383993;19;20007;-66
2022/08/01 08:34:28;;;;;;;4.45;1.27;;;;;;;21.48;74.94;101469.03;7380108;19;20033;-65
2022/08/01 08:36:56;;;;;;;6.93;1.58;;;;;;;21.48;74.31;101466.34;7383374;19;20779;-65
2022/08/01 08:39:31;;;;;;;3.75;1.33;;;;;;;21.48;74.47;101466.34;7381212;19;20015;-65
2022/08/01 08:42:09;;;;;;;5.28;1.15;;;;;;;21.47;75.09;101463.88;7389978;19;20007;-65
2022/08/01 08:44:38;;;;;;;3.22;1.15;;;;;;;21.50;75.06;101460.75;7389619;19;20018;-68
2022/08/01 08:47:12;;;;;;;4.68;1.48;;;;;;;21.49;74.31;101467.16;7390587;19;20033;-64
2022/08/01 08:49:46;;;;;;;4.90;1.48;;;;;;;21.52;74.33;101466.75;7384514;19;20306;-63
2022/08/01 08:52:17;;;;;;;9.32;1.33;;;;;;;21.52;74.50;101469.44;7390309;19;20395;-62
2022/08/01 08:54:46;;;;;;;6.55;1.20;;;;;;;21.53;74.54;101453.16;7386749;19;20475;-66
2022/08/01 08:57:14;;;;;;;2.65;0.90;;;;;;;21.56;74.34;101458.09;7391324;19;20038;-65
2022/08/01 08:59:43;;;;;;;2.30;1.13;;;;;;;21.57;73.90;101458.91;7388707;19;20045;-66
2022/08/01 09:02:10;;;;;;;2.55;1.00;;;;;;;21.58;73.82;101457.88;7392194;19;20225;-66
2022/08/01 09:04:39;;;;;;;2.53;1.05;;;;;;;21.59;74.11;101456.81;7387852;19;20024;-66
2022/08/01 09:07:08;;;;;;;3.35;0.70;;;;;;;21.61;74.33;101463.63;7388454;19;20018;-65
2022/08/01 09:09:37;;;;;;;7.95;1.52;;;;;;;21.64;74.13;101457.03;7389796;19;20698;-66
2022/08/01 09:12:07;;;;;;;2.75;1.05;;;;;;;21.66;74.09;101454.97;7390933;19;20015;-65
2022/08/01 09:14:44;;;;;;;5.25;0.98;;;;;;;21.68;74.09;101459.09;7387643;19;20014;-63
2022/08/01 09:17:12;;;;;;;2.58;0.73;;;;;;;21.72;73.68;101459.50;7387551;19;20017;-63
2022/08/01 09:19:40;;;;;;;3.47;1.10;;;;;;;21.73;74.73;101453.09;7387062;19;20115;-62
2022/08/01 09:22:13;;;;;;;3.75;0.73;;;;;;;21.77;74.16;101465.88;7388928;19;20038;-63
2022/08/01 09:24:41;;;;;;;4.43;1.05;;;;;;;21.79;73.46;101462.94;7389566;19;20515;-62
2022/08/01 09:27:23;;;;;;;2.53;1.13;;;;;;;21.83;73.33;101474.09;7388166;19;20022;-62
2022/08/01 09:29:52;;;;;;;3.30;0.90;;;;;;;21.89;72.71;101473.25;7388364;19;20022;-62
2022/08/01 09:32:27;;;;;;;3.08;0.88;;;;;;;21.91;72.49;101474.69;7390975;19;20021;-62
2022/08/01 09:35:44;;;;;;;4.43;1.52;;;;;;;21.96;72.90;101472.22;7383372;19;20167;-62
2022/08/01 09:38:13;;;;;;;5.90;1.35;;;;;;;21.98;71.35;101470.16;7389294;19;20021;-66
2022/08/01 09:40:49;;;;;;;5.50;1.45;;;;;;;22.03;71.02;101473.03;7387237;19;20482;-67
2022/08/01 09:43:18;;;;;;;7.40;1.80;;;;;;;22.07;71.27;101474.25;7387898;19;20027;-66
2022/08/01 09:45:46;;;;;;;2.95;0.70;;;;;;;22.12;69.90;101469.06;7389496;19;20015;-67
2022/08/01 09:48:17;;;;;;;2.45;0.60;;;;;;;22.20;69.46;101469.88;7387939;19;20015;-66
2022/08/01 09:50:52;;;;;;;4.72;0.80;;;;;;;22.26;69.69;101480.56;7385333;19;20010;-66
2022/08/01 09:53:20;;;;;;;5.47;0.70;;;;;;;22.32;68.81;101481.56;7387263;19;20015;-66
2022/08/01 09:56:10;;;;;;;3.60;1.10;;;;;;;22.36;68.50;101482.78;7390381;19;20014;-67
2022/08/01 09:58:53;;;;;;;4.60;0.70;;;;;;;22.37;67.29;101473.69;7386522;19;20016;-61
2022/08/01 10:01:27;;;;;;;3.05;0.70;;;;;;;22.38;66.60;101475.34;7389510;19;20498;-65
2022/08/01 10:04:10;;;;;;;2.50;0.50;;;;;;;22.43;65.99;101470.97;7384313;19;20371;-65
2022/08/01 10:06:39;;;;;;;1.10;0.50;;;;;;;22.50;67.09;101468.28;7388415;19;20014;-65
2022/08/01 10:09:07;;;;;;;3.42;0.70;;;;;;;22.54;66.21;101466.78;7385524;19;20010;-66
2022/08/01 10:11:38;;;;;;;1.75;0.60;;;;;;;22.57;64.94;101477.91;7386014;19;20020;-66
2022/08/01 10:14:07;;;;;;;2.97;0.77;;;;;;;22.59;64.84;101475.84;7386178;19;20020;-66
2022/08/01 10:16:36;;;;;;;1.55;0.60;;;;;;;22.60;63.88;101476.66;7388309;19;20555;-66
2022/08/01 10:19:07;;;;;;;3.42;0.60;;;;;;;22.57;64.26;101480.59;7384155;19;20010;-65
2022/08/01 10:21:41;;;;;;;1.67;0.82;;;;;;;22.57;64.71;101485.97;7386493;19;20021;-65
2022/08/01 10:24:26;;;;;;;1.42;0.40;;;;;;;22.57;64.18;101479.78;7386217;19;20014;-66
2022/08/01 10:27:10;;;;;;;2.92;0.50;;;;;;;22.59;64.31;101472.34;7387550;19;20380;-63
2022/08/01 10:30:07;;;;;;;3.10;0.70;;;;;;;22.60;64.73;101468.63;7386873;19;20016;-65
2022/08/01 10:32:51;;;;;;;1.60;0.50;;;;;;;22.59;63.99;101470.47;7386302;19;20015;-64
2022/08/01 10:35:21;;;;;;;1.67;1.08;;;;;;;22.61;63.96;101462.19;7383566;19;20010;-65
2022/08/01 10:38:08;;;;;;;2.92;0.70;;;;;;;22.70;64.96;101460.91;7386569;19;20030;-65
2022/08/01 10:40:40;;;;;;;3.60;0.68;;;;;;;22.82;64.54;101466.41;7385318;19;20477;-66
2022/08/01 10:43:09;;;;;;;1.42;0.60;;;;;;;22.94;64.73;101468.19;7387312;19;20010;-64
2022/08/01 10:45:36;;;;;;;1.60;0.70;;;;;;;23.00;64.42;101464.66;7386286;19;20418;-65
2022/08/01 10:48:13;;;;;;;3.33;0.73;;;;;;;23.05;63.88;101463.16;7386203;19;20031;-64
2022/08/01 10:50:49;;;;;;;6.18;1.30;;;;;;;23.09;64.35;101459.81;7382917;19;20025;-65
2022/08/01 10:53:24;;;;;;;4.80;1.42;;;;;;;23.09;64.08;101464.34;7386897;19;20025;-65
2022/08/01 10:56:09;;;;;;;3.67;0.70;;;;;;;23.07;64.26;101450.31;7386812;19;20349;-62
2022/08/01 10:58:43;;;;;;;2.42;0.70;;;;;;;23.09;63.71;101448.25;7383790;19;20046;-63
2022/08/01 11:01:20;;;;;;;3.58;0.88;;;;;;;23.13;63.92;101455.63;7385710;19;20397;-61
2022/08/01 11:04:04;;;;;;;4.13;0.90;;;;;;;23.19;63.39;101446.72;7381542;19;20098;-61
2022/08/01 11:06:34;;;;;;;2.58;0.60;;;;;;;23.23;63.36;101455.97;7386715;19;20042;-62
2022/08/01 11:09:24;;;;;;;7.53;0.90;;;;;;;23.24;62.92;101454.09;7384638;19;20023;-62
2022/08/01 11:12:10;;;;;;;1.42;0.60;;;;;;;23.25;63.69;101442.31;7386656;19;20018;-62
2022/08/01 11:14:58;;;;;;;3.05;0.60;;;;;;;23.27;63.58;101440.22;7384001;19;20014;-64
2022/08/01 11:17:48;;;;;;;8.32;0.82;;;;;;;23.24;63.01;101441.50;7385097;19;20042;-65
2022/08/01 11:20:22;;;;;;;6.03;0.70;;;;;;;23.19;62.91;101430.59;7382896;19;20497;-65
2022/08/01 11:23:01;;;;;;;5.80;0.70;;;;;;;23.20;62.77;101444.84;7385484;19;20284;-62
2022/08/01 11:25:38;;;;;;;0.93;0.50;;;;;;;23.21;62.03;101436.56;7383968;19;20018;-64
2022/08/01 11:28:27;;;;;;;2.75;0.70;;;;;;;23.21;62.26;101433.88;7384703;19;20010;-63
2022/08/01 11:31:07;;;;;;;2.13;0.70;;;;;;;23.25;62.99;101435.09;7384005;19;20369;-61
2022/08/01 11:33:42;;;;;;;2.35;0.60;;;;;;;23.35;62.86;101427.34;7381267;19;20364;-63
2022/08/01 11:36:17;;;;;;;1.10;0.60;;;;;;;23.49;62.96;101435.28;7384162;19;20018;-62
2022/08/01 11:38:56;;;;;;;1.35;0.60;;;;;;;23.60;62.09;101427.31;7385369;19;20254;-63
2022/08/01 11:41:26;;;;;;;2.45;0.70;;;;;;;23.66;61.54;101423.75;7385133;19;20010;-62
2022/08/01 11:44:12;;;;;;;4.57;1.02;;;;;;;23.77;60.92;101430.22;7384577;19;20007;-62
2022/08/01 11:47:09;;;;;;;3.45;0.43;;;;;;;23.88;61.73;101422.22;7383742;19;20006;-62